Time;durP1;ratioP1;P1;durP2;ratioP2;P2;SDS_P1;SDS_P2;PMS_P1;PMS_P2;Temp;Humidity;BMP_temperature;BMP_pressure;BME280_temperature;BME280_humidity;BME280_pressure;Samples;Min_cycle;Max_cycle;Signal;HPM_P1;HPM_P2
2022/08/11 00:00:38;;;;;;;0.40;0.40;;;19.10;99.90;;;;;;5051058;28;20399;-64
2022/08/11 00:03:27;;;;;;;0.40;0.40;;;19.00;99.90;;;;;;5051105;28;20609;-64
2022/08/11 00:06:33;;;;;;;0.40;0.40;;;19.00;99.90;;;;;;5053063;28;20205;-64
2022/08/11 00:09:31;;;;;;;0.50;0.50;;;18.90;99.90;;;;;;5050839;28;20580;-64
2022/08/11 00:12:27;;;;;;;0.40;0.40;;;18.90;99.90;;;;;;5051909;28;20582;-65
2022/08/11 00:15:15;;;;;;;0.50;0.50;;;18.80;99.90;;;;;;5051750;28;20204;-65
2022/08/11 00:18:04;;;;;;;0.40;0.40;;;18.80;99.90;;;;;;5051445;28;20251;-65
2022/08/11 00:20:59;;;;;;;0.40;0.40;;;18.80;99.90;;;;;;5051192;28;20255;-65
2022/08/11 00:23:54;;;;;;;0.40;0.40;;;18.80;99.90;;;;;;5051450;28;20201;-65
2022/08/11 00:26:48;;;;;;;0.50;0.50;;;18.70;99.90;;;;;;5051178;28;20284;-66
2022/08/11 00:29:36;;;;;;;0.40;0.40;;;18.70;99.90;;;;;;5050454;28;20222;-65
2022/08/11 00:32:41;;;;;;;0.40;0.40;;;18.60;99.90;;;;;;5051495;28;20197;-64
2022/08/11 00:35:32;;;;;;;0.50;0.50;;;18.60;99.90;;;;;;5051318;28;20204;-64
2022/08/11 00:38:42;;;;;;;0.50;0.50;;;18.60;99.90;;;;;;5050860;28;20311;-63
2022/08/11 00:41:35;;;;;;;0.45;0.45;;;18.60;99.90;;;;;;5050439;28;20227;-64
2022/08/11 00:44:42;;;;;;;0.50;0.50;;;18.50;99.90;;;;;;5050571;28;20193;-64
2022/08/11 00:47:48;;;;;;;0.50;0.50;;;18.40;99.90;;;;;;5051050;28;20244;-64
2022/08/11 00:50:45;;;;;;;0.47;0.47;;;18.40;99.90;;;;;;5051532;28;20782;-65
2022/08/11 00:53:43;;;;;;;0.40;0.40;;;18.40;99.90;;;;;;5051690;28;20232;-64
2022/08/11 00:57:07;;;;;;;0.40;0.40;;;18.40;99.90;;;;;;5051633;28;20193;-65
2022/08/11 01:00:18;;;;;;;0.50;0.50;;;18.40;99.90;;;;;;5050977;28;20749;-66
2022/08/11 01:03:19;;;;;;;0.50;0.50;;;18.30;99.90;;;;;;5051022;28;20202;-65
2022/08/11 01:06:31;;;;;;;0.40;0.40;;;18.30;99.90;;;;;;5051903;28;20255;-64
2022/08/11 01:09:49;;;;;;;0.50;0.50;;;18.30;99.90;;;;;;5051177;28;20221;-65
2022/08/11 01:12:52;;;;;;;0.40;0.40;;;18.20;99.90;;;;;;5051377;28;20251;-64
2022/08/11 01:16:22;;;;;;;0.40;0.40;;;18.20;99.90;;;;;;5051976;28;20255;-64
2022/08/11 01:19:53;;;;;;;0.40;0.40;;;18.10;99.90;;;;;;5029107;28;20216;-64
2022/08/11 01:24:09;;;;;;;0.40;0.40;;;18.10;99.90;;;;;;5057109;28;20224;-64
2022/08/11 01:27:19;;;;;;;0.50;0.50;;;18.10;99.90;;;;;;5058496;28;20196;-65
2022/08/11 01:30:20;;;;;;;0.40;0.40;;;18.00;99.90;;;;;;5057280;28;20299;-64
2022/08/11 01:33:53;;;;;;;0.40;0.40;;;18.00;99.90;;;;;;5057839;28;20612;-64
2022/08/11 01:37:01;;;;;;;0.40;0.40;;;17.90;99.90;;;;;;5059631;28;20221;-64
2022/08/11 01:40:22;;;;;;;0.40;0.40;;;17.90;99.90;;;;;;5060967;28;20225;-64
2022/08/11 01:47:49;;;;;;;0.50;0.50;;;17.90;99.90;;;;;;5062806;28;20205;-64
2022/08/11 01:50:37;;;;;;;0.50;0.50;;;17.80;99.90;;;;;;5063382;28;20225;-63
2022/08/11 01:53:38;;;;;;;0.45;0.45;;;17.80;99.90;;;;;;5059566;28;20209;-64
2022/08/11 01:56:40;;;;;;;0.50;0.50;;;17.80;99.90;;;;;;5063438;28;20205;-64
2022/08/11 01:59:33;;;;;;;0.50;0.50;;;17.80;99.90;;;;;;5055844;28;20221;-66
2022/08/11 02:02:52;;;;;;;0.50;0.50;;;17.70;99.90;;;;;;5056419;28;20251;-64
2022/08/11 02:06:00;;;;;;;0.45;0.45;;;17.80;99.90;;;;;;5055586;28;20292;-64
2022/08/11 02:08:58;;;;;;;0.50;0.50;;;17.70;99.90;;;;;;5055448;28;20201;-64
2022/08/11 02:11:50;;;;;;;0.50;0.50;;;17.60;99.90;;;;;;5056391;28;20294;-63
2022/08/11 02:14:48;;;;;;;0.40;0.40;;;17.60;99.90;;;;;;5055669;28;20197;-65
2022/08/11 02:18:00;;;;;;;0.50;0.50;;;17.60;99.90;;;;;;5055342;28;20204;-65
2022/08/11 02:24:04;;;;;;;0.50;0.50;;;17.40;99.90;;;;;;5056447;28;20197;-64
2022/08/11 02:27:02;;;;;;;0.50;0.50;;;17.60;99.90;;;;;;5055013;28;20693;-64
2022/08/11 02:30:03;;;;;;;0.50;0.50;;;17.40;99.90;;;;;;5054703;28;20253;-65
2022/08/11 02:36:10;;;;;;;0.50;0.50;;;17.30;99.90;;;;;;5056239;28;20193;-63
2022/08/11 02:39:06;;;;;;;0.50;0.50;;;17.20;99.90;;;;;;5054806;28;20209;-63
2022/08/11 02:42:22;;;;;;;0.43;0.43;;;17.20;99.90;;;;;;5054794;28;20758;-65
2022/08/11 02:45:37;;;;;;;0.40;0.40;;;17.30;99.90;;;;;;5054692;28;20251;-64
2022/08/11 02:52:00;;;;;;;0.50;0.50;;;17.00;99.90;;;;;;5054718;28;20243;-64
2022/08/11 02:54:58;;;;;;;0.50;0.50;;;16.90;99.90;;;;;;5054663;28;20197;-64
2022/08/11 02:57:53;;;;;;;0.40;0.40;;;16.90;99.90;;;;;;5054608;28;20205;-63
2022/08/11 03:00:50;;;;;;;0.40;0.40;;;16.90;99.90;;;;;;5054254;28;20694;-64
2022/08/11 03:03:50;;;;;;;0.40;0.40;;;16.80;99.90;;;;;;5054744;28;20202;-64
2022/08/11 03:06:49;;;;;;;0.50;0.50;;;16.80;99.90;;;;;;5053734;28;20217;-64
2022/08/11 03:09:46;;;;;;;0.50;0.50;;;16.70;99.90;;;;;;5053866;28;20225;-65
2022/08/11 03:19:24;;;;;;;0.50;0.50;;;16.60;99.90;;;;;;5055086;28;20217;-64
2022/08/11 03:22:20;;;;;;;0.50;0.50;;;16.60;99.90;;;;;;5053688;28;20714;-65
2022/08/11 03:25:18;;;;;;;0.50;0.50;;;16.70;99.90;;;;;;5053700;28;20198;-66
2022/08/11 03:28:20;;;;;;;0.43;0.43;;;16.50;99.90;;;;;;5054137;28;20585;-65
2022/08/11 03:31:23;;;;;;;0.50;0.50;;;16.50;99.90;;;;;;5053247;28;20221;-64
2022/08/11 03:34:18;;;;;;;0.40;0.40;;;16.30;99.90;;;;;;5053987;28;20209;-64
2022/08/11 03:37:50;;;;;;;0.50;0.50;;;16.40;99.90;;;;;;5054134;28;20689;-65
2022/08/11 03:44:41;;;;;;;0.50;0.50;;;16.30;99.90;;;;;;5053781;28;20234;-65
2022/08/11 03:48:04;;;;;;;0.50;0.50;;;16.30;99.90;;;;;;5053634;28;20264;-65
2022/08/11 03:51:13;;;;;;;0.40;0.40;;;16.40;99.90;;;;;;5053033;28;20271;-64
2022/08/11 03:54:14;;;;;;;0.40;0.40;;;16.30;99.90;;;;;;5052156;28;20615;-64
2022/08/11 03:57:42;;;;;;;0.45;0.45;;;16.30;99.90;;;;;;5053762;28;20188;-65
2022/08/11 04:00:50;;;;;;;0.50;0.50;;;16.30;99.90;;;;;;5053074;28;20247;-64
2022/08/11 04:04:12;;;;;;;0.40;0.40;;;16.30;99.90;;;;;;5053496;28;20204;-64
2022/08/11 04:07:24;;;;;;;0.50;0.50;;;16.30;99.90;;;;;;5053090;28;20631;-63
2022/08/11 04:10:41;;;;;;;0.50;0.50;;;16.30;99.90;;;;;;5052110;28;20279;-64
2022/08/11 04:15:58;;;;;;;0.50;0.50;;;16.30;99.90;;;;;;5052956;28;20574;-64
2022/08/11 04:17:48;;;;;;;0.50;0.50;;;16.40;99.90;;;;;;5052767;28;20254;-64
2022/08/11 04:20:49;;;;;;;0.50;0.50;;;16.40;99.90;;;;;;5053160;28;20220;-64
2022/08/11 04:24:05;;;;;;;0.50;0.50;;;16.40;99.90;;;;;;5052993;28;20730;-65
2022/08/11 04:27:35;;;;;;;0.40;0.40;;;16.40;99.90;;;;;;5052984;28;20213;-64
2022/08/11 04:30:34;;;;;;;0.50;0.50;;;16.40;99.90;;;;;;5052436;28;20236;-64
2022/08/11 04:33:43;;;;;;;0.50;0.50;;;17.40;99.90;;;;;;5052807;28;20236;-63
2022/08/11 04:40:43;;;;;;;0.40;0.40;;;16.60;99.90;;;;;;5053053;28;20701;-63
2022/08/11 04:44:06;;;;;;;0.50;0.50;;;16.70;99.90;;;;;;5041727;28;20243;-64
2022/08/11 04:47:10;;;;;;;0.50;0.50;;;16.70;99.90;;;;;;5052608;28;20600;-64
2022/08/11 05:03:28;;;;;;;0.40;0.40;;;17.20;99.90;;;;;;5053520;28;20232;-64
2022/08/11 05:06:56;;;;;;;0.50;0.50;;;17.30;99.90;;;;;;5052811;28;20267;-63
2022/08/11 05:10:08;;;;;;;0.50;0.50;;;17.40;99.90;;;;;;5052345;28;20247;-63
2022/08/11 05:27:09;;;;;;;0.40;0.40;;;17.50;99.90;;;;;;5052649;28;20205;-64
2022/08/11 05:35:28;;;;;;;0.50;0.50;;;18.00;99.90;;;;;;5052623;28;20659;-65
2022/08/11 05:57:32;;;;;;;0.43;0.43;;;18.60;99.90;;;;;;5033897;28;20198;-68
2022/08/11 06:00:43;;;;;;;0.50;0.50;;;18.70;99.90;;;;;;5052053;28;20248;-65
2022/08/11 06:04:12;;;;;;;0.40;0.40;;;18.90;99.90;;;;;;5052757;28;20197;-67
2022/08/11 06:06:55;;;;;;;0.40;0.40;;;18.80;99.90;;;;;;5052668;28;20240;-64
2022/08/11 06:09:50;;;;;;;0.50;0.50;;;18.90;99.90;;;;;;5037107;28;20260;-65
2022/08/11 06:12:39;;;;;;;0.50;0.50;;;19.00;99.90;;;;;;5052539;28;20197;-66
2022/08/11 06:15:28;;;;;;;0.50;0.50;;;19.10;99.90;;;;;;5046422;28;20736;-66
2022/08/11 06:18:18;;;;;;;0.50;0.50;;;19.20;99.90;;;;;;5053917;28;20202;-65
2022/08/11 06:21:10;;;;;;;0.50;0.50;;;19.30;99.90;;;;;;5053751;28;20217;-65
2022/08/11 06:23:59;;;;;;;0.40;0.40;;;18.80;99.90;;;;;;5050457;28;20206;-65
2022/08/11 06:26:51;;;;;;;0.50;0.50;;;19.50;99.90;;;;;;5052654;28;20708;-67
2022/08/11 06:30:00;;;;;;;0.68;0.68;;;19.60;99.90;;;;;;5041639;28;20225;-64
2022/08/11 06:32:54;;;;;;;0.50;0.50;;;19.70;99.90;;;;;;5044427;28;20210;-64
2022/08/11 06:35:51;;;;;;;0.40;0.40;;;19.80;99.90;;;;;;5047064;28;20583;-64
2022/08/11 06:38:53;;;;;;;0.50;0.50;;;19.90;99.90;;;;;;5052219;28;20243;-64
2022/08/11 06:41:48;;;;;;;0.50;0.50;;;20.00;99.90;;;;;;5032664;28;20231;-65
2022/08/11 06:44:43;;;;;;;0.45;0.45;;;20.10;99.90;;;;;;5033242;28;20202;-65
2022/08/11 06:47:31;;;;;;;0.50;0.50;;;20.10;99.90;;;;;;5036737;28;20306;-66
2022/08/11 06:53:34;;;;;;;0.40;0.40;;;20.30;99.90;;;;;;5053225;28;20205;-64
2022/08/11 07:02:56;;;;;;;0.50;0.50;;;20.60;99.90;;;;;;5054494;28;20197;-65
2022/08/11 07:05:48;;;;;;;0.40;0.40;;;20.70;99.90;;;;;;5044241;28;20197;-64
2022/08/11 07:15:48;;;;;;;0.40;0.40;;;21.00;99.90;;;;;;5038854;28;20282;-63
2022/08/11 07:28:57;;;;;;;0.50;0.50;;;21.40;99.90;;;;;;5014650;28;20308;-65
2022/08/11 07:31:50;;;;;;;0.50;0.50;;;21.50;99.90;;;;;;5052306;28;20208;-66
2022/08/11 07:34:48;;;;;;;0.50;0.50;;;21.60;99.90;;;;;;5041294;28;20202;-64
2022/08/11 07:37:37;;;;;;;0.50;0.50;;;21.80;99.90;;;;;;5029058;28;20202;-64
2022/08/11 07:40:26;;;;;;;0.40;0.40;;;21.90;99.90;;;;;;5047272;28;20243;-64
2022/08/11 07:43:14;;;;;;;0.40;0.40;;;21.90;99.90;;;;;;5051917;28;20236;-65
2022/08/11 07:52:32;;;;;;;0.40;0.40;;;22.20;99.90;;;;;;5052355;28;20205;-64
2022/08/11 07:55:24;;;;;;;0.40;0.40;;;22.30;99.90;;;;;;5048203;28;20193;-65
2022/08/11 08:20:31;;;;;;;0.40;0.40;;;23.30;99.90;;;;;;5032645;28;20221;-65
2022/08/11 08:23:31;;;;;;;0.50;0.50;;;23.30;99.90;;;;;;5043358;28;20223;-66
2022/08/11 08:32:31;;;;;;;0.40;0.40;;;23.60;98.60;;;;;;5052424;28;20223;-64
2022/08/11 08:35:20;;;;;;;0.40;0.40;;;23.70;98.10;;;;;;5051175;28;20201;-64
2022/08/11 08:38:08;;;;;;;0.50;0.50;;;23.80;97.10;;;;;;5051490;28;20201;-66
2022/08/11 08:40:59;;;;;;;0.40;0.40;;;23.90;95.90;;;;;;5043545;28;20599;-65
2022/08/11 08:43:53;;;;;;;0.40;0.40;;;24.00;95.90;;;;;;5051767;28;20693;-65
2022/08/11 08:46:48;;;;;;;0.50;0.50;;;24.20;95.50;;;;;;5052491;28;20323;-65
2022/08/11 08:49:39;;;;;;;1.50;1.40;;;24.40;95.40;;;;;;5050748;28;20229;-65
2022/08/11 08:52:34;;;;;;;0.50;0.50;;;24.40;94.90;;;;;;5052826;28;20197;-65
2022/08/11 08:55:30;;;;;;;0.40;0.40;;;24.40;94.50;;;;;;5056402;28;20248;-65
2022/08/11 08:58:21;;;;;;;0.40;0.40;;;24.50;94.20;;;;;;5046366;28;20250;-64
2022/08/11 09:01:12;;;;;;;0.40;0.40;;;24.60;94.00;;;;;;5055328;28;20697;-65
2022/08/11 09:04:01;;;;;;;0.50;0.50;;;24.60;93.40;;;;;;5055274;28;20201;-65
2022/08/11 09:07:02;;;;;;;0.45;0.45;;;24.70;93.50;;;;;;5054400;28;20205;-65
2022/08/11 09:09:52;;;;;;;0.40;0.40;;;24.70;93.50;;;;;;5053342;28;20303;-64
2022/08/11 09:12:42;;;;;;;0.40;0.40;;;24.90;93.10;;;;;;5053981;28;20204;-65
2022/08/11 09:15:32;;;;;;;0.40;0.40;;;25.00;92.10;;;;;;5047194;28;20205;-65
2022/08/11 09:18:20;;;;;;;0.40;0.40;;;25.00;91.90;;;;;;5055910;28;20690;-64
2022/08/11 09:21:08;;;;;;;0.50;0.50;;;25.00;91.10;;;;;;5055482;28;20235;-66
2022/08/11 09:27:14;;;;;;;0.40;0.40;;;25.10;90.30;;;;;;5034982;28;20612;-66
2022/08/11 09:30:02;;;;;;;0.50;0.50;;;25.20;90.40;;;;;;5033102;28;21178;-64
2022/08/11 09:32:56;;;;;;;0.82;0.82;;;25.30;89.90;;;;;;5054390;28;20208;-65
2022/08/11 09:35:47;;;;;;;0.50;0.50;;;25.50;90.00;;;;;;5054378;28;20236;-65
2022/08/11 09:41:43;;;;;;;0.50;0.50;;;25.40;86.70;;;;;;5054279;28;20205;-65
2022/08/11 09:44:49;;;;;;;0.40;0.40;;;25.40;85.10;;;;;;5053647;28;20209;-64
2022/08/11 09:47:38;;;;;;;0.40;0.40;;;25.50;84.20;;;;;;5050883;28;20211;-64
2022/08/11 09:50:28;;;;;;;0.40;0.40;;;25.60;85.10;;;;;;5039358;28;20221;-64
2022/08/11 09:53:17;;;;;;;0.50;0.50;;;25.60;84.80;;;;;;5053622;28;20200;-65
2022/08/11 09:59:32;;;;;;;0.47;0.47;;;25.70;85.00;;;;;;5054169;28;20220;-64
2022/08/11 10:02:25;;;;;;;0.50;0.50;;;25.80;82.60;;;;;;5054471;28;20434;-64
2022/08/11 10:08:29;;;;;;;0.40;0.40;;;25.90;82.60;;;;;;5054220;28;20278;-64
2022/08/11 10:11:23;;;;;;;0.50;0.50;;;26.00;78.00;;;;;;5053042;28;20233;-64
2022/08/11 10:17:23;;;;;;;0.40;0.40;;;26.10;79.10;;;;;;5054216;28;20287;-64
2022/08/11 10:20:12;;;;;;;0.40;0.40;;;26.10;78.30;;;;;;5051045;28;20651;-64
2022/08/11 10:35:47;;;;;;;0.50;0.50;;;26.30;75.30;;;;;;5043937;28;20202;-65
2022/08/11 10:38:36;;;;;;;0.40;0.40;;;26.30;75.80;;;;;;5052783;28;20277;-65
2022/08/11 10:44:54;;;;;;;0.47;0.47;;;26.50;75.50;;;;;;5053395;28;20206;-65
2022/08/11 10:47:43;;;;;;;0.40;0.40;;;26.60;76.00;;;;;;5053020;28;20247;-65
2022/08/11 11:00:01;;;;;;;0.40;0.40;;;26.40;73.80;;;;;;5052914;28;20225;-63
2022/08/11 11:02:50;;;;;;;0.40;0.40;;;26.40;72.40;;;;;;5052722;28;20205;-64
2022/08/11 11:06:07;;;;;;;0.40;0.40;;;26.40;73.70;;;;;;5052434;28;20303;-64
2022/08/11 11:09:18;;;;;;;0.50;0.50;;;26.60;73.20;;;;;;5045395;28;20371;-63
2022/08/11 11:18:32;;;;;;;0.40;0.40;;;26.90;71.70;;;;;;5032730;28;20202;-64
2022/08/11 11:21:21;;;;;;;0.40;0.40;;;27.10;71.90;;;;;;5044806;28;20252;-64
2022/08/11 11:24:21;;;;;;;0.40;0.40;;;27.20;71.40;;;;;;5051848;28;20564;-65
2022/08/11 11:27:20;;;;;;;0.40;0.40;;;27.20;71.00;;;;;;5051673;28;20209;-63
2022/08/11 11:30:11;;;;;;;0.40;0.40;;;27.30;70.20;;;;;;5052105;28;20229;-64
2022/08/11 11:33:07;;;;;;;0.40;0.40;;;27.30;70.90;;;;;;5051735;28;20212;-63
2022/08/11 11:36:08;;;;;;;0.40;0.40;;;27.40;70.40;;;;;;5051443;28;20206;-63
2022/08/11 11:38:57;;;;;;;0.43;0.43;;;27.50;68.50;;;;;;5051891;28;20208;-63
2022/08/11 11:41:46;;;;;;;0.40;0.40;;;27.50;69.10;;;;;;5051747;28;20205;-63
2022/08/11 11:44:37;;;;;;;0.40;0.40;;;27.50;69.50;;;;;;5051963;28;20291;-63
2022/08/11 11:47:26;;;;;;;0.40;0.40;;;27.50;68.90;;;;;;5031357;28;20260;-63
2022/08/11 11:50:14;;;;;;;0.40;0.40;;;27.60;68.00;;;;;;5037962;28;20324;-64
2022/08/11 11:53:05;;;;;;;0.40;0.40;;;27.60;67.30;;;;;;5051066;28;20626;-66
2022/08/11 11:55:53;;;;;;;0.40;0.40;;;27.70;67.40;;;;;;5050532;28;20205;-63
2022/08/11 12:01:52;;;;;;;0.40;0.40;;;27.90;67.00;;;;;;5051236;28;20205;-63
2022/08/11 12:04:42;;;;;;;0.40;0.40;;;27.80;66.80;;;;;;5049893;28;20212;-63
2022/08/11 12:14:08;;;;;;;0.40;0.40;;;28.20;63.90;;;;;;5051328;28;20205;-63
2022/08/11 12:17:00;;;;;;;0.50;0.50;;;28.30;63.90;;;;;;5049194;28;20207;-63
2022/08/11 12:19:49;;;;;;;0.50;0.50;;;28.30;63.60;;;;;;5050683;28;20226;-63
2022/08/11 12:29:11;;;;;;;0.40;0.40;;;28.60;63.90;;;;;;5050144;28;20841;-62
2022/08/11 12:32:01;;;;;;;0.50;0.50;;;28.90;63.60;;;;;;5042355;28;20202;-64
2022/08/11 12:34:51;;;;;;;0.47;0.47;;;28.70;62.50;;;;;;5030338;28;20206;-64
2022/08/11 12:37:43;;;;;;;0.40;0.40;;;28.70;61.90;;;;;;5044724;28;20213;-63
2022/08/11 12:51:55;;;;;;;0.40;0.40;;;29.00;62.20;;;;;;5050283;28;20682;-63
2022/08/11 12:54:11;;;;;;;0.40;0.40;;;30.20;60.00;;;;;;5030325;28;20209;-63
2022/08/11 13:06:44;;;;;;;0.40;0.40;;;36.60;48.60;;;;;;5037398;28;20204;-64
2022/08/11 13:09:32;;;;;;;0.40;0.40;;;38.20;46.20;;;;;;5045961;28;20775;-65
2022/08/11 13:15:30;;;;;;;0.40;0.40;;;41.10;42.30;;;;;;5045644;28;20201;-64
2022/08/11 13:18:21;;;;;;;0.40;0.40;;;42.60;39.70;;;;;;5049691;28;20296;-64
2022/08/11 13:21:12;;;;;;;0.40;0.40;;;43.00;37.10;;;;;;5030578;28;20221;-64
2022/08/11 13:24:08;;;;;;;0.40;0.40;;;43.40;36.40;;;;;;5049382;28;20206;-64
2022/08/11 13:26:57;;;;;;;0.40;0.40;;;43.90;36.00;;;;;;5049713;28;20224;-64
2022/08/11 13:29:46;;;;;;;0.40;0.40;;;44.70;35.60;;;;;;5049265;28;20272;-65
2022/08/11 13:32:35;;;;;;;0.50;0.50;;;45.30;34.70;;;;;;5049387;28;20201;-64
2022/08/11 13:35:24;;;;;;;0.50;0.50;;;45.00;34.40;;;;;;5050283;28;20301;-64
2022/08/11 13:38:14;;;;;;;0.50;0.50;;;44.80;33.50;;;;;;5053462;28;20228;-64
2022/08/11 13:41:36;;;;;;;0.50;0.50;;;45.00;33.60;;;;;;5053761;28;20214;-65
2022/08/11 13:44:27;;;;;;;0.50;0.50;;;45.00;32.60;;;;;;5044740;28;20256;-65
2022/08/11 13:47:25;;;;;;;0.50;0.50;;;45.70;32.30;;;;;;5040294;28;20203;-64
2022/08/11 13:51:29;;;;;;;0.60;0.60;;;46.30;32.10;;;;;;5054880;28;20228;-65
2022/08/11 13:53:46;;;;;;;0.50;0.50;;;47.40;31.80;;;;;;5053769;28;20201;-65
2022/08/11 13:56:43;;;;;;;0.60;0.60;;;48.30;31.00;;;;;;5053982;28;20202;-65
2022/08/11 13:59:34;;;;;;;0.60;0.60;;;48.70;30.80;;;;;;5034999;28;20231;-65
2022/08/11 14:02:48;;;;;;;0.60;0.60;;;48.80;29.90;;;;;;5041602;28;20559;-65
2022/08/11 14:05:39;;;;;;;0.60;0.60;;;48.70;30.00;;;;;;5047962;28;20195;-66
2022/08/11 14:08:38;;;;;;;0.52;0.52;;;48.70;30.00;;;;;;5052926;28;20219;-65
2022/08/11 14:15:02;;;;;;;0.52;0.52;;;46.50;30.10;;;;;;5051653;28;20256;-65
2022/08/11 14:18:01;;;;;;;0.50;0.50;;;45.50;31.00;;;;;;5055317;28;20206;-65
2022/08/11 14:24:00;;;;;;;0.50;0.50;;;44.10;32.30;;;;;;5055223;28;20230;-65
2022/08/11 14:26:51;;;;;;;0.50;0.50;;;41.60;33.20;;;;;;5034594;28;20627;-64
2022/08/11 14:29:42;;;;;;;0.50;0.50;;;38.80;35.60;;;;;;5052762;28;20225;-64
2022/08/11 14:32:36;;;;;;;0.50;0.50;;;38.60;36.20;;;;;;5054891;28;20670;-65
2022/08/11 14:35:40;;;;;;;0.50;0.50;;;38.40;37.00;;;;;;5054031;28;20208;-65
2022/08/11 14:38:33;;;;;;;0.40;0.40;;;39.50;36.40;;;;;;5054718;28;20586;-65
2022/08/11 14:48:08;;;;;;;0.50;0.50;;;42.90;33.90;;;;;;5051704;28;20202;-65
2022/08/11 14:50:57;;;;;;;1.13;1.13;;;44.00;32.10;;;;;;5055599;28;20234;-65
2022/08/11 14:53:45;;;;;;;0.60;0.60;;;44.80;32.00;;;;;;5056380;28;20236;-66
2022/08/11 14:56:45;;;;;;;0.57;0.57;;;46.00;31.10;;;;;;5054572;28;20697;-65
2022/08/11 14:59:33;;;;;;;0.60;0.60;;;46.90;30.30;;;;;;5055613;28;20279;-65
2022/08/11 15:05:29;;;;;;;0.60;0.60;;;48.20;29.70;;;;;;5056173;28;20706;-66
2022/08/11 15:08:18;;;;;;;0.55;0.55;;;48.50;28.90;;;;;;5055090;28;20680;-65
2022/08/11 15:12:07;;;;;;;0.65;0.65;;;48.70;28.60;;;;;;5055230;28;20224;-66
2022/08/11 15:17:06;;;;;;;0.60;0.60;;;48.50;28.60;;;;;;5055140;28;20232;-66
2022/08/11 15:17:26;;;;;;;0.60;0.60;;;48.70;28.40;;;;;;5054915;28;20699;-66
2022/08/11 15:45:46;;;;;;;0.60;0.60;;;49.10;28.00;;;;;;5055949;28;20275;-66
2022/08/11 15:46:30;;;;;;;0.60;0.60;;;49.10;27.90;;;;;;5055235;28;20205;-66
2022/08/11 15:49:28;;;;;;;0.60;0.60;;;48.40;27.70;;;;;;5055563;28;20221;-66
2022/08/11 15:52:43;;;;;;;1.00;1.00;;;48.50;27.80;;;;;;5056118;28;20246;-66
2022/08/11 15:55:33;;;;;;;0.63;0.63;;;48.10;27.80;;;;;;5054751;28;20651;-65
2022/08/11 16:04:40;;;;;;;0.60;0.60;;;48.50;27.60;;;;;;5055403;28;20561;-65
2022/08/11 16:07:34;;;;;;;0.60;0.60;;;47.50;27.80;;;;;;5055073;28;20212;-67
2022/08/11 16:10:27;;;;;;;0.77;0.77;;;46.30;28.40;;;;;;5053995;28;20237;-65
2022/08/11 16:16:28;;;;;;;0.50;0.50;;;43.90;29.70;;;;;;5054504;28;20260;-66
2022/08/11 16:19:19;;;;;;;0.60;0.60;;;44.20;28.60;;;;;;5054679;28;20674;-66
2022/08/11 16:22:11;;;;;;;0.50;0.50;;;44.10;29.00;;;;;;5054661;28;20197;-66
2022/08/11 16:25:00;;;;;;;0.50;0.50;;;43.00;29.50;;;;;;5055533;28;20205;-65
2022/08/11 16:28:11;;;;;;;0.50;0.50;;;41.90;30.30;;;;;;5054571;28;20225;-65
2022/08/11 16:31:02;;;;;;;0.50;0.50;;;41.20;30.20;;;;;;5054428;28;20228;-65
2022/08/11 16:33:53;;;;;;;0.50;0.50;;;41.60;30.20;;;;;;5055806;28;20249;-65
2022/08/11 16:39:49;;;;;;;0.50;0.50;;;42.80;29.60;;;;;;5054841;28;20576;-64
2022/08/11 16:49:23;;;;;;;0.50;0.50;;;43.30;29.80;;;;;;5056231;28;20776;-65
2022/08/11 16:52:12;;;;;;;0.50;0.50;;;43.00;29.60;;;;;;5056857;28;20222;-66
2022/08/11 16:55:02;;;;;;;0.60;0.60;;;43.00;29.40;;;;;;5055381;28;20254;-66
2022/08/11 17:00:58;;;;;;;0.50;0.50;;;42.60;28.90;;;;;;5034800;28;20235;-66
2022/08/11 17:13:56;;;;;;;0.50;0.50;;;43.40;29.50;;;;;;5060737;28;20203;-66
2022/08/11 17:16:47;;;;;;;0.50;0.50;;;44.00;29.40;;;;;;5060881;28;20207;-65
2022/08/11 17:19:42;;;;;;;0.50;0.50;;;44.70;28.90;;;;;;5059841;28;20247;-65
2022/08/11 17:26:02;;;;;;;0.50;0.50;;;45.70;28.40;;;;;;5060649;28;20206;-65
2022/08/11 17:28:56;;;;;;;0.50;0.50;;;45.50;27.90;;;;;;5058774;28;20202;-65
2022/08/11 17:38:06;;;;;;;0.50;0.50;;;45.70;28.20;;;;;;5059619;28;20199;-65
2022/08/11 17:50:27;;;;;;;0.50;0.50;;;43.30;28.80;;;;;;5057430;28;20221;-65
2022/08/11 18:05:48;;;;;;;0.45;0.45;;;34.50;36.40;;;;;;5058912;28;20239;-65
